Waynesburg, Kentucky
Current Conditions -  °F | °C
As of 6:15 PM on Saturday 25 Oct 2014 (Local Time) from KDVK Reporting Station
Clear Clear  
Wind Chill: 68°   Ceiling: Unl
Heat Index: 68°   Visibility: 10mi
Dew Point: 55°   Wind: 5mph
Humidity: 64%   Direction: 250°WSW
Pressure: 30"   Gusts: NA
Location:  37.33°N, 84.67°W
Report Text: KDVK 252215Z AUTO 25004KT 10SM CLR 20/13 A3000 RMK AO2
Loading
Personal Weather Stations






























Interactive Weather Map
Tropical Storm Tracking
New forecast layout! Learn more

10-Day Weather Forecast

Advertisements
Track Severe Weather on mobile